createdAt,value
2022-11-22T00:00:55.050Z,92.72
2022-11-22T00:03:22.649Z,92.93
2022-11-22T00:05:50.151Z,92.86
2022-11-22T00:08:18.105Z,93.06
2022-11-22T00:10:45.686Z,93.18
2022-11-22T00:13:13.198Z,93.36
2022-11-22T00:15:40.745Z,93.74
2022-11-22T00:18:08.489Z,93.83
2022-11-22T00:20:36.134Z,93.85
2022-11-22T00:23:03.874Z,93.54
2022-11-22T00:25:31.533Z,93.32
2022-11-22T00:27:59.158Z,93.19
2022-11-22T00:30:26.671Z,93.08
2022-11-22T00:32:54.276Z,93.10
2022-11-22T00:35:22.905Z,93.35
2022-11-22T00:37:50.388Z,93.32
2022-11-22T00:40:18.059Z,93.52
2022-11-22T00:42:45.854Z,93.15
2022-11-22T00:45:13.910Z,93.09
2022-11-22T00:47:41.432Z,93.10
2022-11-22T00:50:10.903Z,92.40
2022-11-22T00:52:38.568Z,92.28
2022-11-22T00:55:06.894Z,92.19
2022-11-22T00:57:39.358Z,91.92
2022-11-22T01:00:08.008Z,91.94
2022-11-22T01:02:35.480Z,92.26
2022-11-22T01:05:03.626Z,92.49
2022-11-22T01:07:31.259Z,92.28
2022-11-22T01:09:58.824Z,92.86
2022-11-22T01:12:26.439Z,93.27
2022-11-22T01:14:53.996Z,93.79
2022-11-22T01:17:21.748Z,93.96
2022-11-22T01:19:50.025Z,94.34
2022-11-22T01:22:17.525Z,94.01
2022-11-22T01:24:45.097Z,93.66
2022-11-22T01:27:12.666Z,92.94
2022-11-22T01:29:40.304Z,92.70
2022-11-22T01:32:07.950Z,93.14
2022-11-22T01:34:36.927Z,93.82
2022-11-22T01:37:04.916Z,93.57
2022-11-22T01:39:33.031Z,93.08
2022-11-22T01:42:00.790Z,92.76
2022-11-22T01:44:32.477Z,92.62
2022-11-22T01:47:13.123Z,93.17
2022-11-22T01:49:57.048Z,93.55
2022-11-22T01:52:31.934Z,93.53
2022-11-22T01:55:11.819Z,93.71
2022-11-22T01:57:44.930Z,93.76
2022-11-22T02:00:18.790Z,93.89
2022-11-22T02:02:55.451Z,94.03
2022-11-22T02:05:27.745Z,93.84
2022-11-22T02:08:17.043Z,94.10
2022-11-22T02:10:49.917Z,93.75
2022-11-22T02:13:21.842Z,94.00
2022-11-22T02:15:52.929Z,93.86
2022-11-22T02:18:21.555Z,93.77
2022-11-22T02:20:49.237Z,93.57
2022-11-22T02:23:38.261Z,93.36
2022-11-22T02:26:06.949Z,93.63
2022-11-22T02:28:37.438Z,93.35
2022-11-22T02:31:05.842Z,93.75
2022-11-22T02:33:33.617Z,93.86
2022-11-22T02:36:01.411Z,93.84
2022-11-22T02:38:35.753Z,93.74
2022-11-22T02:41:10.920Z,93.15
2022-11-22T02:43:43.825Z,93.05
2022-11-22T02:46:23.459Z,93.07
2022-11-22T02:48:51.442Z,93.58
2022-11-22T02:51:20.036Z,93.49
2022-11-22T02:53:50.808Z,93.56
2022-11-22T02:56:20.361Z,93.18
2022-11-22T02:58:48.002Z,92.84
2022-11-22T03:01:15.642Z,92.36
2022-11-22T03:03:44.009Z,92.24
2022-11-22T03:06:11.650Z,91.55
2022-11-22T03:08:39.351Z,91.57
2022-11-22T03:11:07.124Z,91.88
2022-11-22T03:13:34.601Z,91.96
2022-11-22T03:16:02.264Z,91.72
2022-11-22T03:18:30.019Z,92.23
2022-11-22T03:21:03.861Z,92.39
2022-11-22T03:23:32.330Z,92.50
2022-11-22T03:26:00.110Z,92.94
2022-11-22T03:28:27.715Z,92.60
2022-11-22T03:30:55.419Z,93.08
2022-11-22T03:33:23.000Z,92.93
2022-11-22T03:35:50.670Z,93.32
2022-11-22T03:38:19.338Z,93.17
2022-11-22T03:40:47.059Z,92.79
2022-11-22T03:43:14.612Z,92.97
2022-11-22T03:45:47.319Z,92.97
2022-11-22T03:48:15.180Z,93.19
2022-11-22T03:50:43.866Z,93.39
2022-11-22T03:53:11.780Z,93.27
2022-11-22T03:55:40.013Z,92.99
2022-11-22T03:58:07.842Z,92.91
2022-11-22T04:00:37.107Z,92.61
2022-11-22T04:03:04.681Z,92.57
2022-11-22T04:05:32.194Z,92.81
2022-11-22T04:07:59.827Z,93.42
2022-11-22T04:10:27.769Z,93.39
2022-11-22T04:12:59.738Z,93.84
2022-11-22T04:15:28.001Z,93.88
2022-11-22T04:17:55.582Z,93.13
2022-11-22T04:20:44.453Z,93.24
2022-11-22T04:23:18.926Z,93.23
2022-11-22T04:25:53.373Z,93.44
2022-11-22T04:29:08.015Z,93.46
2022-11-22T04:31:33.148Z,93.20
2022-11-22T04:34:00.739Z,93.85
2022-11-22T04:36:28.353Z,93.74
2022-11-22T04:38:55.826Z,93.67
2022-11-22T04:41:23.537Z,93.25
2022-11-22T04:44:09.520Z,92.96
2022-11-22T04:46:37.168Z,93.16
2022-11-22T04:49:04.688Z,93.16
2022-11-22T04:51:51.330Z,93.19
2022-11-22T04:54:18.944Z,93.16
2022-11-22T04:56:46.636Z,93.57
2022-11-22T04:59:14.239Z,93.39
2022-11-22T05:01:41.824Z,93.52
2022-11-22T05:04:09.560Z,93.68
2022-11-22T05:06:38.679Z,93.54
2022-11-22T05:09:06.360Z,94.05
2022-11-22T05:11:34.936Z,93.95
2022-11-22T05:14:03.945Z,94.00
2022-11-22T05:16:31.510Z,93.94
2022-11-22T05:18:59.405Z,93.53
2022-11-22T05:21:29.313Z,93.39
2022-11-22T05:23:57.292Z,93.51
2022-11-22T05:26:29.026Z,93.23
2022-11-22T05:28:58.287Z,93.33
2022-11-22T05:31:27.763Z,93.75
2022-11-22T05:33:57.603Z,93.89
2022-11-22T05:36:25.986Z,94.03
2022-11-22T05:38:54.311Z,94.12
2022-11-22T05:41:22.011Z,93.59
2022-11-22T05:43:49.721Z,93.73
2022-11-22T05:46:25.017Z,93.42
2022-11-22T05:48:56.168Z,93.58
2022-11-22T05:51:34.643Z,93.75
2022-11-22T05:54:03.456Z,93.46
2022-11-22T05:56:31.093Z,93.64
2022-11-22T05:58:58.863Z,93.47
2022-11-22T06:01:26.695Z,93.77
2022-11-22T06:03:54.917Z,92.88
2022-11-22T06:06:22.577Z,92.95
2022-11-22T06:08:51.256Z,93.08
2022-11-22T06:11:21.827Z,91.52
2022-11-22T06:13:56.297Z,91.16
2022-11-22T06:16:24.241Z,90.95
2022-11-22T06:18:54.025Z,92.35
2022-11-22T06:21:25.660Z,92.21
2022-11-22T06:23:55.337Z,92.59
2022-11-22T06:26:24.350Z,90.10
2022-11-22T06:28:54.361Z,92.32
2022-11-22T06:31:28.222Z,92.72
2022-11-22T06:33:59.698Z,93.46
2022-11-22T06:36:31.704Z,93.37
2022-11-22T06:38:59.921Z,92.55
2022-11-22T06:41:35.932Z,94.15
2022-11-22T06:44:07.664Z,93.98
2022-11-22T06:46:36.968Z,94.24
2022-11-22T06:49:05.075Z,94.33
2022-11-22T06:51:32.989Z,94.98
2022-11-22T06:54:00.657Z,95.43
2022-11-22T06:56:32.607Z,96.06
2022-11-22T06:59:04.232Z,96.25
2022-11-22T07:01:33.912Z,95.55
2022-11-22T07:04:03.192Z,95.75
2022-11-22T07:06:34.653Z,95.08
2022-11-22T07:09:06.518Z,96.33
2022-11-22T07:11:36.314Z,95.24
2022-11-22T07:14:08.603Z,95.27
2022-11-22T07:16:39.072Z,94.90
2022-11-22T07:19:07.580Z,94.51
2022-11-22T07:21:37.479Z,93.09
2022-11-22T07:24:07.108Z,94.32
2022-11-22T07:26:35.043Z,93.60
2022-11-22T07:29:03.002Z,91.45
2022-11-22T07:31:30.695Z,91.24
2022-11-22T07:33:58.622Z,91.84
2022-11-22T07:36:29.779Z,89.11
2022-11-22T07:38:59.339Z,86.48
2022-11-22T07:41:27.408Z,81.57
2022-11-22T07:43:55.675Z,79.89
2022-11-22T07:46:29.260Z,79.29
2022-11-22T07:48:58.219Z,77.06
2022-11-22T07:51:26.885Z,75.51
2022-11-22T07:53:56.448Z,72.97
2022-11-22T07:56:24.066Z,74.47
2022-11-22T07:58:51.947Z,77.01
2022-11-22T08:01:21.004Z,75.82
2022-11-22T08:03:49.330Z,74.03
2022-11-22T08:06:16.996Z,73.87
2022-11-22T08:08:45.006Z,73.62
2022-11-22T08:11:12.972Z,74.49
2022-11-22T08:13:41.278Z,72.99
2022-11-22T08:16:15.348Z,72.40
2022-11-22T08:18:49.129Z,71.41
2022-11-22T08:21:18.987Z,71.05
2022-11-22T08:23:48.558Z,70.62
2022-11-22T08:26:18.435Z,69.90
2022-11-22T08:28:46.352Z,69.82
2022-11-22T08:31:20.638Z,71.81
2022-11-22T08:33:48.893Z,71.19
2022-11-22T08:36:16.531Z,72.55
2022-11-22T08:38:44.194Z,73.17
2022-11-22T08:41:11.982Z,73.55
2022-11-22T08:43:39.549Z,75.31
2022-11-22T08:46:07.423Z,74.29
2022-11-22T08:48:37.118Z,74.92
2022-11-22T08:51:08.249Z,74.99
2022-11-22T08:53:43.185Z,74.81
2022-11-22T08:56:17.052Z,74.99
2022-11-22T08:58:46.372Z,75.61
2022-11-22T09:01:17.714Z,76.74
2022-11-22T09:03:45.892Z,76.43
2022-11-22T09:09:30.040Z,76.90
2022-11-22T09:11:55.454Z,76.74
2022-11-22T09:14:23.123Z,77.59
2022-11-22T09:16:50.805Z,77.98
2022-11-22T09:19:20.170Z,78.80
2022-11-22T09:21:47.689Z,79.14
2022-11-22T09:24:15.505Z,79.98
2022-11-22T09:26:43.226Z,79.98
2022-11-22T09:29:11.791Z,80.32
2022-11-22T09:31:39.281Z,80.49
2022-11-22T09:34:07.874Z,81.63
2022-11-22T09:36:35.764Z,82.08
2022-11-22T09:39:03.884Z,81.64
2022-11-22T09:41:58.559Z,81.10
2022-11-22T09:44:44.858Z,81.97
2022-11-22T09:48:09.420Z,82.28
2022-11-22T09:50:57.689Z,82.19
2022-11-22T09:53:52.836Z,82.65
2022-11-22T09:56:27.009Z,83.77
2022-11-22T09:59:06.769Z,83.74
2022-11-22T10:01:45.694Z,83.61
2022-11-22T10:04:27.299Z,83.32
2022-11-22T10:07:38.676Z,83.19
2022-11-22T10:10:24.775Z,82.96
2022-11-22T10:13:19.909Z,83.27
2022-11-22T10:16:03.276Z,82.71
2022-11-22T10:18:48.778Z,82.61
2022-11-22T10:21:21.117Z,82.47
2022-11-22T10:23:51.945Z,81.84
2022-11-22T10:26:28.760Z,81.65
2022-11-22T10:29:20.980Z,81.37
2022-11-22T10:32:22.519Z,81.42
2022-11-22T10:35:14.756Z,81.04
2022-11-22T10:38:06.257Z,81.15
2022-11-22T10:40:56.373Z,80.31
2022-11-22T10:44:09.581Z,79.14
2022-11-22T10:47:23.536Z,79.77
2022-11-22T10:50:20.489Z,78.61
2022-11-22T10:53:06.698Z,78.11
2022-11-22T10:55:50.906Z,77.89
2022-11-22T10:58:56.658Z,78.22
2022-11-22T11:01:59.537Z,77.13
2022-11-22T11:04:36.532Z,76.49
2022-11-22T11:07:13.812Z,75.88
2022-11-22T11:12:53.859Z,76.67
2022-11-22T11:15:44.040Z,76.83
2022-11-22T11:18:26.771Z,77.43
2022-11-22T11:20:54.626Z,78.09
2022-11-22T11:23:22.240Z,78.11
2022-11-22T11:25:52.373Z,77.53
2022-11-22T11:28:30.898Z,77.57
2022-11-22T11:31:08.600Z,77.68
2022-11-22T11:33:39.966Z,77.60
2022-11-22T11:36:12.145Z,77.88
2022-11-22T11:38:43.488Z,77.64
2022-11-22T11:41:38.668Z,78.01
2022-11-22T11:44:26.864Z,78.03
2022-11-22T11:46:54.857Z,77.97
2022-11-22T11:49:27.578Z,77.73
2022-11-22T11:52:03.767Z,78.34
2022-11-22T11:54:47.383Z,78.24
2022-11-22T11:57:34.004Z,78.32
2022-11-22T12:00:19.265Z,78.43
2022-11-22T12:02:48.147Z,78.89
2022-11-22T12:05:19.179Z,79.09
2022-11-22T12:07:47.957Z,78.55
2022-11-22T12:10:55.950Z,78.30
2022-11-22T12:13:51.736Z,78.44
2022-11-22T12:16:30.350Z,78.37
2022-11-22T12:19:19.088Z,77.48
2022-11-22T12:22:29.554Z,77.75
2022-11-22T12:25:39.528Z,77.62
2022-11-22T12:28:24.735Z,77.73
2022-11-22T12:31:32.471Z,77.74
2022-11-22T12:34:12.847Z,77.25
2022-11-22T12:37:06.656Z,77.15
2022-11-22T12:39:38.085Z,77.00
2022-11-22T12:42:29.584Z,77.52
2022-11-22T12:45:35.149Z,77.11
2022-11-22T12:48:17.211Z,77.62
2022-11-22T12:50:49.586Z,77.33
2022-11-22T12:53:29.325Z,76.85
2022-11-22T12:56:33.326Z,77.14
2022-11-22T12:59:10.819Z,77.76
2022-11-22T13:01:52.584Z,77.47
2022-11-22T13:04:44.022Z,77.30
2022-11-22T13:07:59.247Z,75.49
2022-11-22T13:10:54.361Z,75.88
2022-11-22T13:13:30.343Z,75.68
2022-11-22T13:16:06.376Z,75.33
2022-11-22T13:19:04.850Z,74.88
2022-11-22T13:22:01.864Z,75.55
2022-11-22T13:25:00.643Z,75.18
2022-11-22T13:27:41.100Z,75.21
2022-11-22T13:30:24.079Z,75.57
2022-11-22T13:32:59.357Z,76.41
2022-11-22T13:35:38.061Z,77.09
2022-11-22T13:38:17.695Z,77.70
2022-11-22T13:40:51.423Z,77.91
2022-11-22T13:43:48.080Z,78.33
2022-11-22T13:46:57.760Z,78.24
2022-11-22T13:49:48.950Z,78.41
2022-11-22T13:52:16.813Z,77.81
2022-11-22T13:54:47.436Z,77.95
2022-11-22T13:57:44.279Z,77.65
2022-11-22T14:00:15.955Z,77.43
2022-11-22T14:02:53.350Z,77.82
2022-11-22T14:05:41.274Z,77.78
2022-11-22T14:08:32.532Z,77.41
2022-11-22T14:11:48.098Z,77.43
2022-11-22T14:14:33.052Z,77.65
2022-11-22T14:17:27.139Z,77.53
2022-11-22T14:21:00.499Z,77.91
2022-11-22T14:23:46.640Z,77.63
2022-11-22T14:26:57.595Z,77.48
2022-11-22T14:29:55.609Z,78.00
2022-11-22T14:32:26.168Z,78.00
2022-11-22T14:35:05.933Z,78.13
2022-11-22T14:37:44.917Z,77.77
2022-11-22T14:40:17.436Z,77.74
2022-11-22T14:42:48.833Z,77.61
2022-11-22T14:45:23.994Z,77.22
2022-11-22T14:47:51.914Z,77.61
2022-11-22T14:50:28.285Z,77.46
2022-11-22T14:53:19.029Z,77.49
2022-11-22T14:55:49.214Z,77.05
2022-11-22T14:58:25.789Z,76.17
2022-11-22T15:01:29.782Z,76.05
2022-11-22T15:09:21.753Z,76.27
2022-11-22T15:09:22.473Z,76.02
2022-11-22T15:11:21.705Z,75.71
2022-11-22T15:14:20.537Z,75.83
2022-11-22T15:57:38.140Z,73.97
2022-11-22T16:00:22.488Z,73.54
2022-11-22T16:03:04.262Z,73.95
2022-11-22T16:06:07.591Z,74.16
2022-11-22T16:08:29.428Z,73.49
2022-11-22T16:11:01.434Z,73.59
2022-11-22T16:13:34.274Z,73.72
2022-11-22T16:16:13.953Z,72.97
2022-11-22T16:18:49.638Z,73.14
2022-11-22T16:21:20.113Z,73.72
2022-11-22T16:23:48.373Z,72.94
2022-11-22T16:26:19.177Z,73.42
2022-11-22T16:28:51.504Z,72.46
2022-11-22T16:31:31.506Z,73.00
2022-11-22T16:33:59.794Z,72.81
2022-11-22T16:36:32.285Z,72.80
2022-11-22T16:39:00.301Z,73.26
2022-11-22T16:41:29.583Z,73.08
2022-11-22T16:44:02.593Z,72.75
2022-11-22T16:46:30.524Z,73.03
2022-11-22T16:48:58.634Z,73.25
2022-11-22T16:51:30.465Z,73.43
2022-11-22T16:54:06.250Z,73.58
2022-11-22T16:56:35.846Z,74.59
2022-11-22T16:59:06.879Z,73.66
2022-11-22T17:01:43.637Z,73.60
2022-11-22T17:04:23.599Z,73.37
2022-11-22T17:06:52.029Z,74.33
2022-11-22T17:09:20.099Z,74.85
2022-11-22T17:11:48.626Z,75.29
2022-11-22T17:14:19.471Z,75.52
2022-11-22T17:16:48.133Z,75.07
2022-11-22T17:19:52.870Z,75.57
2022-11-22T17:22:07.136Z,75.37
2022-11-22T17:24:35.830Z,75.19
2022-11-22T17:27:03.740Z,75.47
2022-11-22T17:32:20.009Z,75.97
2022-11-22T17:34:47.695Z,76.11
2022-11-22T17:37:15.596Z,75.93
2022-11-22T17:39:43.319Z,75.84
2022-11-22T17:42:12.238Z,75.68
2022-11-22T17:44:39.890Z,75.09
2022-11-22T17:47:08.829Z,75.19
2022-11-22T17:49:36.378Z,74.78
2022-11-22T17:52:04.131Z,74.59
2022-11-22T17:54:32.294Z,74.39
2022-11-22T17:56:59.865Z,74.17
2022-11-22T17:59:27.413Z,73.89
2022-11-22T18:01:56.876Z,74.46
2022-11-22T18:04:24.637Z,75.07
2022-11-22T18:06:52.174Z,75.70
2022-11-22T18:09:19.806Z,75.74
2022-11-22T18:11:47.754Z,76.02
2022-11-22T18:14:15.442Z,75.88
2022-11-22T18:16:43.035Z,76.06
2022-11-22T18:19:10.840Z,75.38
2022-11-22T18:21:39.102Z,75.57
2022-11-22T18:24:08.496Z,75.17
2022-11-22T18:26:40.621Z,74.52
2022-11-22T18:32:00.517Z,74.96
2022-11-22T18:34:29.217Z,75.66
2022-11-22T18:37:01.943Z,76.64
2022-11-22T18:39:38.360Z,76.91
2022-11-22T18:42:14.481Z,77.49
2022-11-22T18:44:42.343Z,77.64
2022-11-22T18:47:10.124Z,77.91
2022-11-22T18:49:37.881Z,76.32
2022-11-22T18:52:06.276Z,76.53
2022-11-22T18:54:34.265Z,76.02
2022-11-22T18:57:01.904Z,76.54
2022-11-22T18:59:29.579Z,75.91
2022-11-22T19:01:57.502Z,76.16
2022-11-22T19:04:25.103Z,76.35
2022-11-22T19:06:52.625Z,75.57
2022-11-22T19:09:20.185Z,75.75
2022-11-22T19:11:47.757Z,75.98
2022-11-22T19:14:15.461Z,75.13
2022-11-22T19:16:43.000Z,75.28
2022-11-22T19:19:12.162Z,75.04
2022-11-22T19:21:40.385Z,75.23
2022-11-22T19:24:09.060Z,75.64
2022-11-22T19:26:36.840Z,75.74
2022-11-22T19:29:05.043Z,75.52
2022-11-22T19:31:33.773Z,75.19
2022-11-22T19:34:04.194Z,74.94
2022-11-22T19:36:34.385Z,74.64
2022-11-22T19:39:05.589Z,74.63
2022-11-22T19:41:35.059Z,73.78
2022-11-22T19:44:03.644Z,74.22
2022-11-22T19:46:34.432Z,74.34
2022-11-22T19:49:02.462Z,73.81
2022-11-22T19:51:31.379Z,73.82
2022-11-22T19:54:04.702Z,73.53
2022-11-22T19:56:37.283Z,73.68
2022-11-22T19:59:09.829Z,73.44
2022-11-22T20:01:37.787Z,73.54
2022-11-22T20:04:06.848Z,74.25
2022-11-22T20:06:36.645Z,73.80
2022-11-22T20:09:11.349Z,73.37
2022-11-22T20:11:41.353Z,73.63
2022-11-22T20:14:09.854Z,73.41
2022-11-22T20:16:42.855Z,73.66
2022-11-22T20:19:12.629Z,73.52
2022-11-22T20:21:40.635Z,74.07
2022-11-22T20:24:08.788Z,73.47
2022-11-22T20:26:36.459Z,74.19
2022-11-22T20:29:08.433Z,74.10
2022-11-22T20:31:42.977Z,74.31
2022-11-22T20:34:11.105Z,74.01
2022-11-22T20:36:38.659Z,74.48
2022-11-22T20:39:12.404Z,74.13
2022-11-22T20:41:42.489Z,74.44
2022-11-22T20:44:14.615Z,74.36
2022-11-22T20:46:43.045Z,74.04
2022-11-22T20:49:11.034Z,74.58
2022-11-22T20:51:39.875Z,74.95
2022-11-22T20:54:14.533Z,74.94
2022-11-22T20:56:42.045Z,74.33
2022-11-22T20:59:10.414Z,74.03
2022-11-22T21:01:38.108Z,74.16
2022-11-22T21:04:06.386Z,74.45
2022-11-22T21:06:35.063Z,74.70
2022-11-22T21:09:03.399Z,75.11
2022-11-22T21:11:32.032Z,75.26
2022-11-22T21:14:00.451Z,75.12
2022-11-22T21:16:29.731Z,75.24
2022-11-22T21:19:06.918Z,75.79
2022-11-22T21:21:36.405Z,76.01
2022-11-22T21:24:06.220Z,76.16
2022-11-22T21:26:36.604Z,76.37
2022-11-22T21:29:15.966Z,76.73
2022-11-22T21:31:44.184Z,76.95
2022-11-22T21:34:18.356Z,76.97
2022-11-22T21:36:47.518Z,77.52
2022-11-22T21:39:21.335Z,77.89
2022-11-22T21:41:48.992Z,78.11
2022-11-22T21:44:16.644Z,78.26
2022-11-22T21:46:44.886Z,78.48
2022-11-22T21:49:13.880Z,78.47
2022-11-22T21:51:48.352Z,78.64
2022-11-22T21:54:19.549Z,78.95
2022-11-22T21:56:48.126Z,79.28
2022-11-22T21:59:15.703Z,79.47
2022-11-22T22:01:43.761Z,79.73
2022-11-22T22:04:18.330Z,80.00
2022-11-22T22:06:46.418Z,80.15
2022-11-22T22:09:14.487Z,80.33
2022-11-22T22:11:45.663Z,80.06
2022-11-22T22:14:15.157Z,80.35
2022-11-22T22:16:42.873Z,80.45
2022-11-22T22:19:10.632Z,80.71
2022-11-22T22:21:38.368Z,80.76
2022-11-22T22:24:07.022Z,80.94
2022-11-22T22:26:34.585Z,80.88
2022-11-22T22:29:03.822Z,81.02
2022-11-22T22:31:33.426Z,80.89
2022-11-22T22:34:01.033Z,80.75
2022-11-22T22:36:28.733Z,80.41
2022-11-22T22:38:56.446Z,80.78
2022-11-22T22:41:24.815Z,80.62
2022-11-22T22:43:52.385Z,80.36
2022-11-22T22:46:22.847Z,80.25
2022-11-22T22:48:51.914Z,80.22
2022-11-22T22:51:32.409Z,79.87
2022-11-22T22:54:02.675Z,80.13
2022-11-22T22:56:31.798Z,80.10
2022-11-22T22:59:00.960Z,79.89
2022-11-22T23:01:31.237Z,80.04
2022-11-22T23:04:02.040Z,80.09
2022-11-22T23:06:33.469Z,80.28
2022-11-22T23:09:02.110Z,79.93
2022-11-22T23:11:51.774Z,79.57
2022-11-22T23:14:30.328Z,79.35
2022-11-22T23:16:58.599Z,79.06
2022-11-22T23:19:27.437Z,79.35
2022-11-22T23:21:55.958Z,79.47
2022-11-22T23:24:23.616Z,79.04
2022-11-22T23:26:52.359Z,78.85
2022-11-22T23:29:19.956Z,78.12
2022-11-22T23:31:47.658Z,78.42
2022-11-22T23:34:16.338Z,78.66
2022-11-22T23:36:44.454Z,78.62
2022-11-22T23:39:12.387Z,78.89
2022-11-22T23:41:41.580Z,78.45
2022-11-22T23:44:09.153Z,78.91
2022-11-22T23:46:36.739Z,79.05
2022-11-22T23:49:05.418Z,79.39
2022-11-22T23:51:36.372Z,79.27
2022-11-22T23:54:06.439Z,79.42
2022-11-22T23:56:36.390Z,79.87
2022-11-22T23:59:05.568Z,79.97
